sensor_id;sensor_type;location;lat;lon;timestamp;temperature;humidity
67777;DHT22;54576;52.020;5.536;2022-09-12T00:00:26;13.70;99.90
67777;DHT22;54576;52.020;5.536;2022-09-12T00:02:52;13.60;99.90
67777;DHT22;54576;52.020;5.536;2022-09-12T00:05:19;13.60;99.90
67777;DHT22;54576;52.020;5.536;2022-09-12T00:07:46;13.60;99.90
67777;DHT22;54576;52.020;5.536;2022-09-12T00:10:11;13.70;99.90
67777;DHT22;54576;52.020;5.536;2022-09-12T00:12:37;13.70;99.90
67777;DHT22;54576;52.020;5.536;2022-09-12T00:15:23;13.70;99.90
67777;DHT22;54576;52.020;5.536;2022-09-12T00:17:49;13.70;99.90
67777;DHT22;54576;52.020;5.536;2022-09-12T00:20:14;13.70;99.90
67777;DHT22;54576;52.020;5.536;2022-09-12T00:22:49;13.70;99.90
67777;DHT22;54576;52.020;5.536;2022-09-12T00:25:24;13.70;99.90
67777;DHT22;54576;52.020;5.536;2022-09-12T00:27:57;13.70;99.90
67777;DHT22;54576;52.020;5.536;2022-09-12T00:30:23;13.70;99.90
67777;DHT22;54576;52.020;5.536;2022-09-12T00:32:51;13.60;99.90
67777;DHT22;54576;52.020;5.536;2022-09-12T00:35:19;13.60;99.90
67777;DHT22;54576;52.020;5.536;2022-09-12T00:37:45;13.70;99.90
67777;DHT22;54576;52.020;5.536;2022-09-12T00:40:14;13.70;99.90
67777;DHT22;54576;52.020;5.536;2022-09-12T00:42:40;13.80;99.90
67777;DHT22;54576;52.020;5.536;2022-09-12T00:45:07;13.80;99.90
67777;DHT22;54576;52.020;5.536;2022-09-12T00:47:43;13.80;99.90
67777;DHT22;54576;52.020;5.536;2022-09-12T00:50:12;13.70;99.90
67777;DHT22;54576;52.020;5.536;2022-09-12T00:52:48;13.70;99.90
67777;DHT22;54576;52.020;5.536;2022-09-12T01:00:27;13.60;99.90
67777;DHT22;54576;52.020;5.536;2022-09-12T01:02:57;13.60;99.90
67777;DHT22;54576;52.020;5.536;2022-09-12T01:05:27;13.60;99.90
67777;DHT22;54576;52.020;5.536;2022-09-12T01:07:55;13.60;99.90
67777;DHT22;54576;52.020;5.536;2022-09-12T01:10:23;13.60;99.90
67777;DHT22;54576;52.020;5.536;2022-09-12T01:12:49;13.60;99.90
67777;DHT22;54576;52.020;5.536;2022-09-12T01:15:15;13.60;99.90
67777;DHT22;54576;52.020;5.536;2022-09-12T01:17:48;13.60;99.90
67777;DHT22;54576;52.020;5.536;2022-09-12T01:28:59;13.60;99.90
67777;DHT22;54576;52.020;5.536;2022-09-12T01:32:01;13.60;99.90
67777;DHT22;54576;52.020;5.536;2022-09-12T01:34:39;13.60;99.90
67777;DHT22;54576;52.020;5.536;2022-09-12T01:40:09;13.50;99.90
67777;DHT22;54576;52.020;5.536;2022-09-12T01:43:10;13.40;99.90
67777;DHT22;54576;52.020;5.536;2022-09-12T01:48:22;13.30;99.90
67777;DHT22;54576;52.020;5.536;2022-09-12T01:54:04;13.20;99.90
67777;DHT22;54576;52.020;5.536;2022-09-12T01:56:29;13.10;99.90
67777;DHT22;54576;52.020;5.536;2022-09-12T02:01:31;13.10;99.90
67777;DHT22;54576;52.020;5.536;2022-09-12T02:06:53;13.00;99.90
67777;DHT22;54576;52.020;5.536;2022-09-12T02:09:30;13.00;99.90
67777;DHT22;54576;52.020;5.536;2022-09-12T02:11:59;13.00;99.90
67777;DHT22;54576;52.020;5.536;2022-09-12T02:14:36;12.90;99.90
67777;DHT22;54576;52.020;5.536;2022-09-12T02:17:23;12.90;99.90
67777;DHT22;54576;52.020;5.536;2022-09-12T02:22:24;12.90;99.90
67777;DHT22;54576;52.020;5.536;2022-09-12T02:24:54;12.80;99.90
67777;DHT22;54576;52.020;5.536;2022-09-12T02:27:25;12.80;99.90
67777;DHT22;54576;52.020;5.536;2022-09-12T02:29:52;12.90;99.90
67777;DHT22;54576;52.020;5.536;2022-09-12T02:35:23;12.90;99.90
67777;DHT22;54576;52.020;5.536;2022-09-12T02:38:14;13.00;99.90
67777;DHT22;54576;52.020;5.536;2022-09-12T02:40:44;13.00;99.90
67777;DHT22;54576;52.020;5.536;2022-09-12T02:43:10;13.00;99.90
67777;DHT22;54576;52.020;5.536;2022-09-12T02:45:36;13.00;99.90
67777;DHT22;54576;52.020;5.536;2022-09-12T02:48:07;13.00;99.90
67777;DHT22;54576;52.020;5.536;2022-09-12T02:50:34;13.00;99.90
67777;DHT22;54576;52.020;5.536;2022-09-12T02:53:00;13.00;99.90
67777;DHT22;54576;52.020;5.536;2022-09-12T02:55:33;13.00;99.90
67777;DHT22;54576;52.020;5.536;2022-09-12T02:58:04;13.00;99.90
67777;DHT22;54576;52.020;5.536;2022-09-12T03:00:47;13.00;99.90
67777;DHT22;54576;52.020;5.536;2022-09-12T03:06:04;13.00;99.90
67777;DHT22;54576;52.020;5.536;2022-09-12T03:08:59;13.10;99.90
67777;DHT22;54576;52.020;5.536;2022-09-12T03:17:16;13.10;99.90
67777;DHT22;54576;52.020;5.536;2022-09-12T03:19:57;13.10;99.90
67777;DHT22;54576;52.020;5.536;2022-09-12T03:22:54;13.10;99.90
67777;DHT22;54576;52.020;5.536;2022-09-12T03:27:58;13.10;99.90
67777;DHT22;54576;52.020;5.536;2022-09-12T03:30:26;13.10;99.90
67777;DHT22;54576;52.020;5.536;2022-09-12T03:32:53;13.10;99.90
67777;DHT22;54576;52.020;5.536;2022-09-12T03:35:21;13.10;99.90
67777;DHT22;54576;52.020;5.536;2022-09-12T03:37:48;13.10;99.90
67777;DHT22;54576;52.020;5.536;2022-09-12T03:40:14;13.10;99.90
67777;DHT22;54576;52.020;5.536;2022-09-12T03:42:43;13.10;99.90
67777;DHT22;54576;52.020;5.536;2022-09-12T03:45:09;13.10;99.90
67777;DHT22;54576;52.020;5.536;2022-09-12T03:47:35;13.10;99.90
67777;DHT22;54576;52.020;5.536;2022-09-12T03:50:01;13.10;99.90
67777;DHT22;54576;52.020;5.536;2022-09-12T03:52:27;13.20;99.90
67777;DHT22;54576;52.020;5.536;2022-09-12T03:54:53;13.20;99.90
67777;DHT22;54576;52.020;5.536;2022-09-12T03:57:18;13.20;99.90
67777;DHT22;54576;52.020;5.536;2022-09-12T03:59:44;13.20;99.90
67777;DHT22;54576;52.020;5.536;2022-09-12T04:02:09;13.20;99.90
67777;DHT22;54576;52.020;5.536;2022-09-12T04:04:39;13.20;99.90
67777;DHT22;54576;52.020;5.536;2022-09-12T04:07:06;13.20;99.90
67777;DHT22;54576;52.020;5.536;2022-09-12T04:09:34;13.20;99.90
67777;DHT22;54576;52.020;5.536;2022-09-12T04:12:00;13.20;99.90
67777;DHT22;54576;52.020;5.536;2022-09-12T04:14:26;13.10;99.90
67777;DHT22;54576;52.020;5.536;2022-09-12T04:16:51;13.20;99.90
67777;DHT22;54576;52.020;5.536;2022-09-12T04:19:17;13.10;99.90
67777;DHT22;54576;52.020;5.536;2022-09-12T04:21:43;13.20;99.90
67777;DHT22;54576;52.020;5.536;2022-09-12T04:24:08;13.20;99.90
67777;DHT22;54576;52.020;5.536;2022-09-12T04:26:37;13.20;99.90
67777;DHT22;54576;52.020;5.536;2022-09-12T04:29:02;13.20;99.90
67777;DHT22;54576;52.020;5.536;2022-09-12T04:31:28;13.20;99.90
67777;DHT22;54576;52.020;5.536;2022-09-12T04:33:58;13.20;99.90
67777;DHT22;54576;52.020;5.536;2022-09-12T04:36:25;13.30;99.90
67777;DHT22;54576;52.020;5.536;2022-09-12T04:38:51;13.30;99.90
67777;DHT22;54576;52.020;5.536;2022-09-12T04:41:23;13.30;99.90
67777;DHT22;54576;52.020;5.536;2022-09-12T04:43:54;13.30;99.90
67777;DHT22;54576;52.020;5.536;2022-09-12T04:46:23;13.30;99.90
67777;DHT22;54576;52.020;5.536;2022-09-12T04:48:48;13.30;99.90
67777;DHT22;54576;52.020;5.536;2022-09-12T04:51:16;13.30;99.90
67777;DHT22;54576;52.020;5.536;2022-09-12T04:53:47;13.30;99.90
67777;DHT22;54576;52.020;5.536;2022-09-12T04:56:13;13.30;99.90
67777;DHT22;54576;52.020;5.536;2022-09-12T04:58:38;13.30;99.90
67777;DHT22;54576;52.020;5.536;2022-09-12T05:01:10;13.30;99.90
67777;DHT22;54576;52.020;5.536;2022-09-12T05:03:41;13.30;99.90
67777;DHT22;54576;52.020;5.536;2022-09-12T05:06:14;13.40;99.90
67777;DHT22;54576;52.020;5.536;2022-09-12T05:08:41;13.30;99.90
67777;DHT22;54576;52.020;5.536;2022-09-12T05:11:11;13.40;99.90
67777;DHT22;54576;52.020;5.536;2022-09-12T05:13:38;13.40;99.90
67777;DHT22;54576;52.020;5.536;2022-09-12T05:16:05;13.40;99.90
67777;DHT22;54576;52.020;5.536;2022-09-12T05:18:34;13.40;99.90
67777;DHT22;54576;52.020;5.536;2022-09-12T05:21:04;13.40;99.90
67777;DHT22;54576;52.020;5.536;2022-09-12T05:23:31;13.30;99.90
67777;DHT22;54576;52.020;5.536;2022-09-12T05:25:59;13.40;99.90
67777;DHT22;54576;52.020;5.536;2022-09-12T05:28:28;13.40;99.90
67777;DHT22;54576;52.020;5.536;2022-09-12T05:31:05;13.30;99.90
67777;DHT22;54576;52.020;5.536;2022-09-12T05:33:36;13.30;99.90
67777;DHT22;54576;52.020;5.536;2022-09-12T05:36:04;13.40;99.90
67777;DHT22;54576;52.020;5.536;2022-09-12T05:38:32;13.40;99.90
67777;DHT22;54576;52.020;5.536;2022-09-12T05:43:28;13.40;99.90
67777;DHT22;54576;52.020;5.536;2022-09-12T05:46:00;13.50;99.90
67777;DHT22;54576;52.020;5.536;2022-09-12T05:48:26;13.50;99.90
67777;DHT22;54576;52.020;5.536;2022-09-12T05:50:58;13.50;99.90
67777;DHT22;54576;52.020;5.536;2022-09-12T05:53:26;13.60;99.90
67777;DHT22;54576;52.020;5.536;2022-09-12T05:56:04;13.60;99.90
67777;DHT22;54576;52.020;5.536;2022-09-12T05:58:30;13.70;99.90
67777;DHT22;54576;52.020;5.536;2022-09-12T06:01:01;13.70;99.90
67777;DHT22;54576;52.020;5.536;2022-09-12T06:03:27;13.70;99.90
67777;DHT22;54576;52.020;5.536;2022-09-12T06:05:52;13.70;99.90
67777;DHT22;54576;52.020;5.536;2022-09-12T06:08:18;13.80;99.90
67777;DHT22;54576;52.020;5.536;2022-09-12T06:10:44;13.80;99.90
67777;DHT22;54576;52.020;5.536;2022-09-12T06:13:09;13.80;99.90
67777;DHT22;54576;52.020;5.536;2022-09-12T06:15:35;13.80;99.90
67777;DHT22;54576;52.020;5.536;2022-09-12T06:18:02;13.80;99.90
67777;DHT22;54576;52.020;5.536;2022-09-12T06:20:27;13.80;99.90
67777;DHT22;54576;52.020;5.536;2022-09-12T06:22:53;13.80;99.90
67777;DHT22;54576;52.020;5.536;2022-09-12T06:25:18;13.80;99.90
67777;DHT22;54576;52.020;5.536;2022-09-12T06:27:44;13.90;99.90
67777;DHT22;54576;52.020;5.536;2022-09-12T06:30:12;13.80;99.90
67777;DHT22;54576;52.020;5.536;2022-09-12T06:32:37;13.80;99.90
67777;DHT22;54576;52.020;5.536;2022-09-12T06:35:03;13.90;99.90
67777;DHT22;54576;52.020;5.536;2022-09-12T06:37:29;13.90;99.90
67777;DHT22;54576;52.020;5.536;2022-09-12T06:39:55;13.90;99.90
67777;DHT22;54576;52.020;5.536;2022-09-12T06:42:21;13.90;99.90
67777;DHT22;54576;52.020;5.536;2022-09-12T06:44:47;14.00;99.90
67777;DHT22;54576;52.020;5.536;2022-09-12T06:47:12;14.10;99.90
67777;DHT22;54576;52.020;5.536;2022-09-12T06:49:38;14.30;99.90
67777;DHT22;54576;52.020;5.536;2022-09-12T06:52:04;14.80;99.90
67777;DHT22;54576;52.020;5.536;2022-09-12T06:54:31;15.10;99.90
67777;DHT22;54576;52.020;5.536;2022-09-12T06:56:57;15.50;99.90
67777;DHT22;54576;52.020;5.536;2022-09-12T06:59:22;16.10;99.90
67777;DHT22;54576;52.020;5.536;2022-09-12T07:01:49;16.10;99.90
67777;DHT22;54576;52.020;5.536;2022-09-12T07:04:15;15.90;99.90
67777;DHT22;54576;52.020;5.536;2022-09-12T07:06:41;15.70;99.90
67777;DHT22;54576;52.020;5.536;2022-09-12T07:09:11;15.70;99.90
67777;DHT22;54576;52.020;5.536;2022-09-12T07:11:38;15.70;99.90
67777;DHT22;54576;52.020;5.536;2022-09-12T07:14:06;15.70;99.90
67777;DHT22;54576;52.020;5.536;2022-09-12T07:16:34;15.80;99.90
67777;DHT22;54576;52.020;5.536;2022-09-12T07:19:01;15.80;99.90
67777;DHT22;54576;52.020;5.536;2022-09-12T07:21:28;15.90;99.90
67777;DHT22;54576;52.020;5.536;2022-09-12T07:23:54;16.00;99.90
67777;DHT22;54576;52.020;5.536;2022-09-12T07:26:22;16.00;99.90
67777;DHT22;54576;52.020;5.536;2022-09-12T07:28:52;16.10;99.90
67777;DHT22;54576;52.020;5.536;2022-09-12T07:31:22;16.20;99.90
67777;DHT22;54576;52.020;5.536;2022-09-12T07:33:49;16.20;99.90
67777;DHT22;54576;52.020;5.536;2022-09-12T07:36:17;16.20;99.90
67777;DHT22;54576;52.020;5.536;2022-09-12T07:38:44;16.20;99.90
67777;DHT22;54576;52.020;5.536;2022-09-12T07:43:40;16.20;99.90
67777;DHT22;54576;52.020;5.536;2022-09-12T07:46:08;16.30;99.90
67777;DHT22;54576;52.020;5.536;2022-09-12T07:48:34;16.40;99.90
67777;DHT22;54576;52.020;5.536;2022-09-12T07:51:01;16.50;99.90
67777;DHT22;54576;52.020;5.536;2022-09-12T07:53:33;16.50;99.90
67777;DHT22;54576;52.020;5.536;2022-09-12T07:55:59;16.50;99.90
67777;DHT22;54576;52.020;5.536;2022-09-12T07:58:25;16.60;99.90
67777;DHT22;54576;52.020;5.536;2022-09-12T08:00:51;16.70;99.90
67777;DHT22;54576;52.020;5.536;2022-09-12T08:03:17;16.70;99.90
67777;DHT22;54576;52.020;5.536;2022-09-12T08:05:43;16.90;99.90
67777;DHT22;54576;52.020;5.536;2022-09-12T08:08:08;17.00;99.90
67777;DHT22;54576;52.020;5.536;2022-09-12T08:10:34;17.10;99.90
67777;DHT22;54576;52.020;5.536;2022-09-12T08:13:00;17.20;99.90
67777;DHT22;54576;52.020;5.536;2022-09-12T08:15:27;17.20;99.90
67777;DHT22;54576;52.020;5.536;2022-09-12T08:17:53;17.30;99.90
67777;DHT22;54576;52.020;5.536;2022-09-12T08:20:19;17.40;99.90
67777;DHT22;54576;52.020;5.536;2022-09-12T08:22:44;17.50;99.90
67777;DHT22;54576;52.020;5.536;2022-09-12T08:25:10;17.60;99.90
67777;DHT22;54576;52.020;5.536;2022-09-12T08:27:36;17.60;99.90
67777;DHT22;54576;52.020;5.536;2022-09-12T08:30:03;17.70;99.90
67777;DHT22;54576;52.020;5.536;2022-09-12T08:32:29;17.80;99.90
67777;DHT22;54576;52.020;5.536;2022-09-12T08:34:55;17.80;99.90
67777;DHT22;54576;52.020;5.536;2022-09-12T08:37:21;17.90;99.90
67777;DHT22;54576;52.020;5.536;2022-09-12T08:39:47;18.00;99.90
67777;DHT22;54576;52.020;5.536;2022-09-12T08:43:09;18.10;99.90
67777;DHT22;54576;52.020;5.536;2022-09-12T08:45:20;18.20;99.90
67777;DHT22;54576;52.020;5.536;2022-09-12T08:47:47;18.30;99.90
67777;DHT22;54576;52.020;5.536;2022-09-12T08:50:17;18.40;99.90
67777;DHT22;54576;52.020;5.536;2022-09-12T08:52:58;18.50;99.90
67777;DHT22;54576;52.020;5.536;2022-09-12T08:57:50;18.70;99.90
67777;DHT22;54576;52.020;5.536;2022-09-12T09:00:16;18.80;99.90
67777;DHT22;54576;52.020;5.536;2022-09-12T09:08:44;19.20;99.90
67777;DHT22;54576;52.020;5.536;2022-09-12T09:22:48;19.50;99.90
67777;DHT22;54576;52.020;5.536;2022-09-12T09:25:20;19.60;99.90
67777;DHT22;54576;52.020;5.536;2022-09-12T09:30:22;19.70;99.90
67777;DHT22;54576;52.020;5.536;2022-09-12T09:32:50;19.80;99.90
67777;DHT22;54576;52.020;5.536;2022-09-12T09:35:43;19.90;99.90
67777;DHT22;54576;52.020;5.536;2022-09-12T09:38:45;19.90;99.90
67777;DHT22;54576;52.020;5.536;2022-09-12T09:44:05;20.00;99.90
67777;DHT22;54576;52.020;5.536;2022-09-12T09:46:31;19.90;99.90
67777;DHT22;54576;52.020;5.536;2022-09-12T09:48:59;20.00;99.90
67777;DHT22;54576;52.020;5.536;2022-09-12T09:51:28;20.10;99.90
67777;DHT22;54576;52.020;5.536;2022-09-12T09:54:02;20.20;99.90
67777;DHT22;54576;52.020;5.536;2022-09-12T09:56:38;20.20;99.90
67777;DHT22;54576;52.020;5.536;2022-09-12T09:59:19;20.30;99.90
67777;DHT22;54576;52.020;5.536;2022-09-12T10:04:51;20.40;99.90
67777;DHT22;54576;52.020;5.536;2022-09-12T10:07:19;20.40;99.90
67777;DHT22;54576;52.020;5.536;2022-09-12T10:10:14;20.50;99.90
67777;DHT22;54576;52.020;5.536;2022-09-12T10:12:40;20.60;99.90
67777;DHT22;54576;52.020;5.536;2022-09-12T10:15:20;20.60;99.90
67777;DHT22;54576;52.020;5.536;2022-09-12T10:17:48;20.60;99.90
67777;DHT22;54576;52.020;5.536;2022-09-12T10:20:37;20.70;99.90
67777;DHT22;54576;52.020;5.536;2022-09-12T10:23:28;20.70;99.90
67777;DHT22;54576;52.020;5.536;2022-09-12T10:25:57;20.80;99.90
67777;DHT22;54576;52.020;5.536;2022-09-12T10:28:34;20.80;99.90
67777;DHT22;54576;52.020;5.536;2022-09-12T10:31:02;20.80;99.90
67777;DHT22;54576;52.020;5.536;2022-09-12T10:33:28;20.90;99.90
67777;DHT22;54576;52.020;5.536;2022-09-12T10:35:55;21.00;99.90
67777;DHT22;54576;52.020;5.536;2022-09-12T10:38:25;21.00;99.90
67777;DHT22;54576;52.020;5.536;2022-09-12T10:40:55;21.10;99.90
67777;DHT22;54576;52.020;5.536;2022-09-12T10:43:34;21.10;99.90
67777;DHT22;54576;52.020;5.536;2022-09-12T10:48:41;21.20;99.90
67777;DHT22;54576;52.020;5.536;2022-09-12T10:53:54;21.30;99.90
67777;DHT22;54576;52.020;5.536;2022-09-12T10:56:27;21.40;99.90
67777;DHT22;54576;52.020;5.536;2022-09-12T11:23:59;21.90;99.90
67777;DHT22;54576;52.020;5.536;2022-09-12T11:32:12;22.10;99.90
67777;DHT22;54576;52.020;5.536;2022-09-12T11:39:55;22.30;99.90
67777;DHT22;54576;52.020;5.536;2022-09-12T11:42:31;22.40;99.90
67777;DHT22;54576;52.020;5.536;2022-09-12T11:45:06;22.40;99.90
67777;DHT22;54576;52.020;5.536;2022-09-12T11:47:37;22.40;99.90
67777;DHT22;54576;52.020;5.536;2022-09-12T11:50:19;22.40;99.90
67777;DHT22;54576;52.020;5.536;2022-09-12T11:52:45;22.40;99.90
67777;DHT22;54576;52.020;5.536;2022-09-12T11:55:16;22.40;99.90
67777;DHT22;54576;52.020;5.536;2022-09-12T11:57:52;22.40;99.90
67777;DHT22;54576;52.020;5.536;2022-09-12T12:00:22;22.40;99.90
67777;DHT22;54576;52.020;5.536;2022-09-12T12:05:51;22.50;99.90
67777;DHT22;54576;52.020;5.536;2022-09-12T12:08:20;22.50;99.90
67777;DHT22;54576;52.020;5.536;2022-09-12T12:11:00;22.40;99.90
67777;DHT22;54576;52.020;5.536;2022-09-12T12:15:59;22.40;99.90
67777;DHT22;54576;52.020;5.536;2022-09-12T12:18:27;22.40;99.90
67777;DHT22;54576;52.020;5.536;2022-09-12T12:20:54;22.40;99.90
67777;DHT22;54576;52.020;5.536;2022-09-12T12:23:30;22.50;99.90
67777;DHT22;54576;52.020;5.536;2022-09-12T12:26:02;22.40;99.90
67777;DHT22;54576;52.020;5.536;2022-09-12T12:31:15;22.50;99.90
67777;DHT22;54576;52.020;5.536;2022-09-12T12:38:56;22.60;99.90
67777;DHT22;54576;52.020;5.536;2022-09-12T12:43:49;22.60;99.90
67777;DHT22;54576;52.020;5.536;2022-09-12T12:46:17;22.60;99.90
67777;DHT22;54576;52.020;5.536;2022-09-12T12:48:54;22.70;99.90
67777;DHT22;54576;52.020;5.536;2022-09-12T12:53:56;22.80;99.90
67777;DHT22;54576;52.020;5.536;2022-09-12T12:56:31;22.80;99.90
67777;DHT22;54576;52.020;5.536;2022-09-12T12:59:00;22.80;99.90
67777;DHT22;54576;52.020;5.536;2022-09-12T13:01:26;22.70;99.90
67777;DHT22;54576;52.020;5.536;2022-09-12T13:03:59;22.70;99.90
67777;DHT22;54576;52.020;5.536;2022-09-12T13:06:37;22.80;99.90
67777;DHT22;54576;52.020;5.536;2022-09-12T13:12:04;22.90;99.90
67777;DHT22;54576;52.020;5.536;2022-09-12T13:17:07;22.90;99.90
67777;DHT22;54576;52.020;5.536;2022-09-12T13:19:39;22.90;99.90
67777;DHT22;54576;52.020;5.536;2022-09-12T13:22:07;22.90;99.90
67777;DHT22;54576;52.020;5.536;2022-09-12T13:24:55;22.90;99.90
67777;DHT22;54576;52.020;5.536;2022-09-12T13:27:24;22.90;99.90
67777;DHT22;54576;52.020;5.536;2022-09-12T13:30:06;22.90;99.90
67777;DHT22;54576;52.020;5.536;2022-09-12T13:32:32;22.90;99.90
67777;DHT22;54576;52.020;5.536;2022-09-12T13:35:28;22.90;99.90
67777;DHT22;54576;52.020;5.536;2022-09-12T13:38:21;23.00;98.80
67777;DHT22;54576;52.020;5.536;2022-09-12T13:40:59;23.10;98.20
67777;DHT22;54576;52.020;5.536;2022-09-12T13:43:44;23.10;99.90
67777;DHT22;54576;52.020;5.536;2022-09-12T13:46:16;23.10;98.00
67777;DHT22;54576;52.020;5.536;2022-09-12T13:48:43;23.10;99.90
67777;DHT22;54576;52.020;5.536;2022-09-12T13:51:24;23.10;99.90
67777;DHT22;54576;52.020;5.536;2022-09-12T13:53:52;23.20;99.90
67777;DHT22;54576;52.020;5.536;2022-09-12T13:56:21;23.10;99.90
67777;DHT22;54576;52.020;5.536;2022-09-12T13:59:09;23.20;99.90
67777;DHT22;54576;52.020;5.536;2022-09-12T14:01:40;23.20;99.90
67777;DHT22;54576;52.020;5.536;2022-09-12T14:04:21;23.10;99.90
67777;DHT22;54576;52.020;5.536;2022-09-12T14:07:15;23.20;98.70
67777;DHT22;54576;52.020;5.536;2022-09-12T14:09:52;23.30;99.90
67777;DHT22;54576;52.020;5.536;2022-09-12T14:12:27;23.30;99.90
67777;DHT22;54576;52.020;5.536;2022-09-12T14:19:54;23.30;99.90
67777;DHT22;54576;52.020;5.536;2022-09-12T14:22:23;23.30;99.90
67777;DHT22;54576;52.020;5.536;2022-09-12T14:24:51;23.30;99.90
67777;DHT22;54576;52.020;5.536;2022-09-12T14:27:23;23.30;99.90
67777;DHT22;54576;52.020;5.536;2022-09-12T14:30:06;23.30;99.90
67777;DHT22;54576;52.020;5.536;2022-09-12T14:32:34;23.30;99.90
67777;DHT22;54576;52.020;5.536;2022-09-12T14:37:35;23.30;99.50
67777;DHT22;54576;52.020;5.536;2022-09-12T14:40:01;23.30;99.90
67777;DHT22;54576;52.020;5.536;2022-09-12T14:42:30;23.20;99.90
67777;DHT22;54576;52.020;5.536;2022-09-12T14:45:10;23.20;99.90
67777;DHT22;54576;52.020;5.536;2022-09-12T14:47:41;23.20;99.90
67777;DHT22;54576;52.020;5.536;2022-09-12T14:50:37;23.10;99.60
67777;DHT22;54576;52.020;5.536;2022-09-12T14:53:06;23.10;98.00
67777;DHT22;54576;52.020;5.536;2022-09-12T14:55:40;23.10;99.90
67777;DHT22;54576;52.020;5.536;2022-09-12T14:58:14;23.00;99.90
67777;DHT22;54576;52.020;5.536;2022-09-12T15:01:01;23.00;99.00
67777;DHT22;54576;52.020;5.536;2022-09-12T15:06:20;22.90;99.80
67777;DHT22;54576;52.020;5.536;2022-09-12T15:08:47;22.90;99.90
67777;DHT22;54576;52.020;5.536;2022-09-12T15:11:12;22.80;99.90
67777;DHT22;54576;52.020;5.536;2022-09-12T15:13:39;22.80;99.90
67777;DHT22;54576;52.020;5.536;2022-09-12T15:16:10;22.80;99.90
67777;DHT22;54576;52.020;5.536;2022-09-12T15:18:37;22.70;99.90
67777;DHT22;54576;52.020;5.536;2022-09-12T15:21:04;22.70;99.90
67777;DHT22;54576;52.020;5.536;2022-09-12T15:25:59;22.70;99.90
67777;DHT22;54576;52.020;5.536;2022-09-12T15:28:25;22.70;97.90
67777;DHT22;54576;52.020;5.536;2022-09-12T15:30:53;22.70;99.90
67777;DHT22;54576;52.020;5.536;2022-09-12T15:33:20;22.70;99.90
67777;DHT22;54576;52.020;5.536;2022-09-12T15:35:47;22.60;99.90
67777;DHT22;54576;52.020;5.536;2022-09-12T15:38:13;22.60;99.90
67777;DHT22;54576;52.020;5.536;2022-09-12T15:40:39;22.60;99.90
67777;DHT22;54576;52.020;5.536;2022-09-12T15:43:04;22.60;99.90
67777;DHT22;54576;52.020;5.536;2022-09-12T15:45:32;22.60;99.90
67777;DHT22;54576;52.020;5.536;2022-09-12T15:47:59;22.60;99.90
67777;DHT22;54576;52.020;5.536;2022-09-12T15:50:24;22.60;99.90
67777;DHT22;54576;52.020;5.536;2022-09-12T15:52:51;22.70;99.90
67777;DHT22;54576;52.020;5.536;2022-09-12T15:55:20;22.70;99.90
67777;DHT22;54576;52.020;5.536;2022-09-12T15:57:46;22.70;99.90
67777;DHT22;54576;52.020;5.536;2022-09-12T16:00:13;22.70;99.90
67777;DHT22;54576;52.020;5.536;2022-09-12T16:02:39;22.70;99.90
67777;DHT22;54576;52.020;5.536;2022-09-12T16:05:05;22.70;99.90
67777;DHT22;54576;52.020;5.536;2022-09-12T16:07:31;22.70;99.90
67777;DHT22;54576;52.020;5.536;2022-09-12T16:09:56;22.60;99.90
67777;DHT22;54576;52.020;5.536;2022-09-12T16:12:22;22.60;99.90
67777;DHT22;54576;52.020;5.536;2022-09-12T16:14:48;22.60;99.90
67777;DHT22;54576;52.020;5.536;2022-09-12T16:17:14;22.60;99.90
67777;DHT22;54576;52.020;5.536;2022-09-12T16:19:39;22.50;99.90
67777;DHT22;54576;52.020;5.536;2022-09-12T16:22:05;22.40;99.90
67777;DHT22;54576;52.020;5.536;2022-09-12T16:24:30;22.40;99.90
67777;DHT22;54576;52.020;5.536;2022-09-12T16:26:56;22.30;99.90
67777;DHT22;54576;52.020;5.536;2022-09-12T16:29:21;22.20;99.90
67777;DHT22;54576;52.020;5.536;2022-09-12T16:31:47;22.10;99.90
67777;DHT22;54576;52.020;5.536;2022-09-12T16:34:12;22.00;99.90
67777;DHT22;54576;52.020;5.536;2022-09-12T16:36:39;21.90;99.90
67777;DHT22;54576;52.020;5.536;2022-09-12T16:39:04;21.90;99.90
67777;DHT22;54576;52.020;5.536;2022-09-12T16:41:30;21.80;99.90
67777;DHT22;54576;52.020;5.536;2022-09-12T16:43:56;21.70;99.90
67777;DHT22;54576;52.020;5.536;2022-09-12T16:46:25;21.70;99.90
67777;DHT22;54576;52.020;5.536;2022-09-12T16:48:54;21.60;99.90
67777;DHT22;54576;52.020;5.536;2022-09-12T16:51:25;21.50;99.90
67777;DHT22;54576;52.020;5.536;2022-09-12T16:53:52;21.50;99.90
67777;DHT22;54576;52.020;5.536;2022-09-12T16:56:18;21.40;99.90
67777;DHT22;54576;52.020;5.536;2022-09-12T16:58:45;21.40;99.90
67777;DHT22;54576;52.020;5.536;2022-09-12T17:01:20;21.30;99.90
67777;DHT22;54576;52.020;5.536;2022-09-12T17:03:45;21.30;99.90
67777;DHT22;54576;52.020;5.536;2022-09-12T17:06:16;21.20;99.90
67777;DHT22;54576;52.020;5.536;2022-09-12T17:08:45;21.10;99.90
67777;DHT22;54576;52.020;5.536;2022-09-12T17:11:31;21.00;99.90
67777;DHT22;54576;52.020;5.536;2022-09-12T17:13:58;21.00;99.90
67777;DHT22;54576;52.020;5.536;2022-09-12T17:16:25;21.00;99.90
67777;DHT22;54576;52.020;5.536;2022-09-12T17:18:52;20.90;99.90
67777;DHT22;54576;52.020;5.536;2022-09-12T17:21:18;20.80;99.90
67777;DHT22;54576;52.020;5.536;2022-09-12T17:23:44;20.80;99.90
67777;DHT22;54576;52.020;5.536;2022-09-12T17:26:10;20.80;99.90
67777;DHT22;54576;52.020;5.536;2022-09-12T17:28:40;20.70;99.90
67777;DHT22;54576;52.020;5.536;2022-09-12T17:31:08;20.70;99.90
67777;DHT22;54576;52.020;5.536;2022-09-12T17:33:35;20.60;99.90
67777;DHT22;54576;52.020;5.536;2022-09-12T17:36:08;20.50;99.90
67777;DHT22;54576;52.020;5.536;2022-09-12T17:38:36;20.50;99.90
67777;DHT22;54576;52.020;5.536;2022-09-12T17:41:11;20.40;99.90
67777;DHT22;54576;52.020;5.536;2022-09-12T17:43:43;20.40;99.90
67777;DHT22;54576;52.020;5.536;2022-09-12T17:46:10;20.30;99.90
67777;DHT22;54576;52.020;5.536;2022-09-12T17:48:36;20.20;99.90
67777;DHT22;54576;52.020;5.536;2022-09-12T17:51:13;20.20;99.90
67777;DHT22;54576;52.020;5.536;2022-09-12T17:53:40;20.20;99.90
67777;DHT22;54576;52.020;5.536;2022-09-12T17:56:06;20.10;99.90
67777;DHT22;54576;52.020;5.536;2022-09-12T17:58:33;20.00;99.90
67777;DHT22;54576;52.020;5.536;2022-09-12T18:01:05;19.90;99.90
67777;DHT22;54576;52.020;5.536;2022-09-12T18:03:51;19.90;99.90
67777;DHT22;54576;52.020;5.536;2022-09-12T18:06:17;19.80;99.90
67777;DHT22;54576;52.020;5.536;2022-09-12T18:08:43;19.80;99.90
67777;DHT22;54576;52.020;5.536;2022-09-12T18:11:08;19.70;99.90
67777;DHT22;54576;52.020;5.536;2022-09-12T18:13:34;19.70;99.90
67777;DHT22;54576;52.020;5.536;2022-09-12T18:16:04;19.60;99.90
67777;DHT22;54576;52.020;5.536;2022-09-12T18:18:30;19.50;99.90
67777;DHT22;54576;52.020;5.536;2022-09-12T18:20:57;19.50;99.90
67777;DHT22;54576;52.020;5.536;2022-09-12T18:23:22;19.40;99.90